Terminal Aerodrome Forecast
Issued by NWS

Home | Current Version | Previous Version | Text Only | Print | Product List | Glossary On
Versions: 1 2 3 4 5 6 7 8 9 10 11 12 13 14 15
000
FTAK31 PAJN 252300
TAFAKT
TAF
PAKT 252322Z 2600/2624 VRB06KT P6SM VCSH SCT015 OVC035
     FM261000 17006KT P6SM -SHRA SCT015 OVC025
     FM261600 15007KT 6SM -SHRA SCT010 OVC020
     FM262200 16007KT 5SM -SHRA SCT008 OVC015
      AMD LTD TO CLD VIS AND WIND 2606/2615=

USA.gov is the U.S. government's official web portal to all federal, state and local government web resources and services.